createdAt,value
2022-09-26T00:01:43.819Z,4.10
2022-09-26T00:04:23.659Z,4.63
2022-09-26T00:06:55.491Z,3.70
2022-09-26T00:09:26.317Z,3.70
2022-09-26T00:11:55.682Z,3.65
2022-09-26T00:14:28.362Z,3.83
2022-09-26T00:16:57.741Z,3.70
2022-09-26T00:19:26.879Z,3.25
2022-09-26T00:21:55.519Z,3.50
2022-09-26T00:24:24.220Z,3.85
2022-09-26T00:26:53.320Z,3.45
2022-09-26T00:29:22.167Z,3.13
2022-09-26T00:31:50.885Z,4.30
2022-09-26T00:34:21.558Z,3.50
2022-09-26T00:36:50.526Z,3.90
2022-09-26T00:39:19.473Z,3.72
2022-09-26T00:41:48.328Z,3.80
2022-09-26T00:44:55.462Z,3.53
2022-09-26T00:47:24.200Z,3.25
2022-09-26T00:49:57.740Z,3.80
2022-09-26T00:52:42.020Z,4.03
2022-09-26T00:55:14.894Z,4.10
2022-09-26T00:57:48.590Z,3.70
2022-09-26T01:00:17.390Z,3.28
2022-09-26T01:02:48.096Z,3.45
2022-09-26T01:05:20.348Z,3.33
2022-09-26T01:07:51.246Z,3.50
2022-09-26T01:10:20.112Z,3.17
2022-09-26T01:12:48.711Z,3.38
2022-09-26T01:15:17.736Z,3.55
2022-09-26T01:17:47.116Z,3.90
2022-09-26T01:20:33.768Z,3.25
2022-09-26T01:23:23.839Z,3.45
2022-09-26T01:26:20.363Z,3.17
2022-09-26T01:29:28.599Z,3.03
2022-09-26T01:32:46.971Z,4.93
2022-09-26T01:35:36.774Z,3.88
2022-09-26T01:38:20.047Z,3.30
2022-09-26T01:41:20.101Z,3.67
2022-09-26T01:44:24.501Z,3.60
2022-09-26T01:46:58.635Z,3.30
2022-09-26T01:49:35.655Z,3.35
2022-09-26T01:52:10.813Z,3.47
2022-09-26T01:54:46.509Z,3.10
2022-09-26T01:57:22.251Z,3.17
2022-09-26T02:00:04.973Z,3.42
2022-09-26T02:02:57.090Z,3.58
2022-09-26T02:05:34.606Z,4.72
2022-09-26T02:08:03.502Z,3.60
2022-09-26T02:10:38.702Z,3.78
2022-09-26T02:13:24.921Z,3.33
2022-09-26T02:16:02.077Z,3.45
2022-09-26T02:18:47.294Z,3.30
2022-09-26T02:23:47.608Z,3.70
2022-09-26T02:26:16.609Z,3.75
2022-09-26T02:28:45.931Z,3.22
2022-09-26T02:31:22.871Z,3.25
2022-09-26T02:33:53.552Z,2.70
2022-09-26T02:36:25.392Z,3.40
2022-09-26T02:38:54.480Z,3.70
2022-09-26T02:41:55.622Z,3.67
2022-09-26T02:44:45.512Z,4.10
2022-09-26T02:47:35.461Z,5.80
2022-09-26T02:50:26.512Z,3.80
2022-09-26T02:53:28.900Z,3.40
2022-09-26T02:56:05.962Z,4.00
2022-09-26T02:59:00.332Z,5.60
2022-09-26T03:01:45.006Z,4.88
2022-09-26T03:04:35.352Z,4.78
2022-09-26T03:07:11.333Z,5.72
2022-09-26T03:09:42.632Z,4.25
2022-09-26T03:12:12.707Z,4.95
2022-09-26T03:14:44.094Z,3.65
2022-09-26T03:17:15.341Z,4.07
2022-09-26T03:19:54.066Z,4.50
2022-09-26T03:22:23.754Z,3.20
2022-09-26T03:24:52.928Z,3.80
2022-09-26T03:27:22.119Z,4.43
2022-09-26T03:29:55.910Z,3.15
2022-09-26T03:32:27.829Z,4.55
2022-09-26T03:34:57.522Z,3.17
2022-09-26T03:37:26.685Z,3.10
2022-09-26T03:39:56.890Z,4.20
2022-09-26T03:42:47.866Z,4.30
2022-09-26T03:45:17.014Z,2.83
2022-09-26T03:47:59.155Z,3.50
2022-09-26T03:50:28.520Z,3.95
2022-09-26T03:52:57.628Z,4.80
2022-09-26T03:55:26.553Z,3.70
2022-09-26T03:57:55.556Z,3.90
2022-09-26T04:00:31.940Z,3.35
2022-09-26T04:03:04.035Z,2.95
2022-09-26T04:05:38.356Z,3.10
2022-09-26T04:08:07.619Z,3.25
2022-09-26T04:10:38.263Z,5.90
2022-09-26T04:13:08.253Z,5.93
2022-09-26T04:15:38.439Z,4.60
2022-09-26T04:18:13.170Z,2.78
2022-09-26T04:20:42.195Z,3.28
2022-09-26T04:23:11.525Z,2.92
2022-09-26T04:25:40.334Z,3.03
2022-09-26T04:28:09.377Z,3.70
2022-09-26T04:30:38.190Z,3.58
2022-09-26T04:33:09.521Z,2.60
2022-09-26T04:35:56.337Z,6.05
2022-09-26T04:38:25.484Z,4.82
2022-09-26T04:40:54.340Z,5.50
2022-09-26T04:43:23.841Z,6.30
2022-09-26T04:45:52.920Z,10.35
2022-09-26T04:48:22.505Z,3.78
2022-09-26T04:50:57.987Z,3.72
2022-09-26T04:53:27.016Z,5.22
2022-09-26T04:56:10.299Z,3.13
2022-09-26T04:58:42.595Z,2.65
2022-09-26T05:01:14.188Z,4.07
2022-09-26T05:03:58.513Z,2.42
2022-09-26T05:06:29.255Z,2.63
2022-09-26T05:08:58.582Z,3.03
2022-09-26T05:11:46.446Z,4.18
2022-09-26T05:14:15.881Z,2.72
2022-09-26T05:16:45.093Z,2.10
2022-09-26T05:19:16.180Z,2.80
2022-09-26T05:22:02.258Z,4.93
2022-09-26T05:24:49.598Z,2.97
2022-09-26T05:27:19.877Z,3.72
2022-09-26T05:29:49.399Z,3.47
2022-09-26T05:32:21.339Z,2.92
2022-09-26T05:34:52.779Z,3.00
2022-09-26T05:37:23.279Z,2.67
2022-09-26T05:40:10.631Z,3.10
2022-09-26T05:42:44.044Z,3.28
2022-09-26T05:45:14.700Z,3.00
2022-09-26T05:47:44.048Z,4.43
2022-09-26T05:50:13.125Z,2.70
2022-09-26T05:52:42.137Z,2.58
2022-09-26T05:55:17.809Z,3.20
2022-09-26T05:58:01.898Z,2.10
2022-09-26T06:00:49.515Z,1.67
2022-09-26T06:03:18.492Z,2.17
2022-09-26T06:06:05.129Z,4.97
2022-09-26T06:08:36.788Z,2.78
2022-09-26T06:11:31.393Z,3.42
2022-09-26T06:14:01.299Z,5.20
2022-09-26T06:16:30.604Z,4.72
2022-09-26T06:18:59.666Z,3.20
2022-09-26T06:21:28.482Z,3.40
2022-09-26T06:24:11.086Z,3.50
2022-09-26T06:26:40.088Z,2.90
2022-09-26T06:29:11.690Z,2.20
2022-09-26T06:31:43.095Z,2.87
2022-09-26T06:34:13.663Z,2.78
2022-09-26T06:37:10.258Z,3.50
2022-09-26T06:39:39.920Z,4.35
2022-09-26T06:42:09.681Z,3.97
2022-09-26T06:45:12.600Z,3.35
2022-09-26T06:48:03.668Z,3.22
2022-09-26T06:50:57.819Z,5.03
2022-09-26T06:53:27.193Z,2.83
2022-09-26T06:55:59.783Z,2.88
2022-09-26T06:58:29.563Z,4.22
2022-09-26T07:01:05.149Z,3.38
2022-09-26T07:03:54.352Z,3.45
2022-09-26T07:06:49.269Z,2.97
2022-09-26T07:09:18.406Z,3.63
2022-09-26T07:14:46.428Z,4.25
2022-09-26T07:17:29.360Z,4.38
2022-09-26T07:20:24.597Z,4.60
2022-09-26T07:23:09.386Z,3.72
2022-09-26T07:25:42.503Z,4.10
2022-09-26T07:28:11.737Z,2.97
2022-09-26T07:30:49.505Z,4.75
2022-09-26T07:33:40.319Z,4.70
2022-09-26T07:36:11.982Z,4.70
2022-09-26T07:38:44.441Z,5.60
2022-09-26T07:41:13.198Z,5.40
2022-09-26T07:44:34.716Z,4.90
2022-09-26T07:46:50.647Z,3.60
2022-09-26T07:49:38.061Z,5.00
2022-09-26T07:52:09.345Z,4.20
2022-09-26T07:54:54.302Z,4.95
2022-09-26T07:57:41.587Z,4.93
2022-09-26T08:00:23.539Z,6.60
2022-09-26T08:03:02.301Z,6.40
2022-09-26T08:05:32.401Z,6.85
2022-09-26T08:08:01.241Z,5.47
2022-09-26T08:10:48.585Z,6.00
2022-09-26T08:13:27.894Z,6.35
2022-09-26T08:16:29.267Z,6.25
2022-09-26T08:19:02.302Z,5.70
2022-09-26T08:21:31.136Z,8.13
2022-09-26T08:24:00.679Z,11.25
2022-09-26T08:26:48.180Z,8.48
2022-09-26T08:29:39.638Z,10.60
2022-09-26T08:32:09.072Z,11.23
2022-09-26T08:34:38.819Z,7.93
2022-09-26T08:37:29.017Z,9.98
2022-09-26T08:40:16.283Z,7.95
2022-09-26T08:43:55.997Z,8.80
2022-09-26T08:47:07.894Z,7.28
2022-09-26T08:50:08.716Z,7.78
2022-09-26T08:53:01.536Z,9.05
2022-09-26T08:55:45.815Z,8.57
2022-09-26T08:58:31.446Z,10.32
2022-09-26T09:01:05.665Z,9.40
2022-09-26T09:03:59.806Z,8.77
2022-09-26T09:06:30.022Z,7.55
2022-09-26T09:08:59.213Z,7.63
2022-09-26T09:12:07.770Z,8.35
2022-09-26T09:14:58.097Z,8.80
2022-09-26T09:18:07.736Z,8.95
2022-09-26T09:21:20.470Z,8.30
2022-09-26T09:24:41.506Z,8.45
2022-09-26T09:30:54.125Z,14.88
2022-09-26T09:33:37.984Z,13.98
2022-09-26T09:36:24.350Z,19.10
2022-09-26T09:39:18.329Z,14.27
2022-09-26T09:44:47.708Z,11.10
2022-09-26T09:47:19.391Z,10.30
2022-09-26T09:49:50.069Z,11.35
2022-09-26T09:52:46.100Z,8.38
2022-09-26T09:55:35.558Z,16.23
2022-09-26T09:58:33.146Z,20.60
2022-09-26T10:01:12.292Z,24.70
2022-09-26T10:04:01.920Z,24.95
2022-09-26T10:06:45.595Z,12.93
2022-09-26T10:09:38.891Z,15.32
2022-09-26T10:12:44.194Z,12.02
2022-09-26T10:15:33.118Z,12.98
2022-09-26T10:18:26.981Z,7.72
2022-09-26T10:21:17.061Z,8.57
2022-09-26T10:23:51.333Z,7.85
2022-09-26T10:26:40.184Z,7.90
2022-09-26T10:29:34.914Z,7.57
2022-09-26T10:32:04.611Z,7.07
2022-09-26T10:34:36.142Z,6.85
2022-09-26T10:37:28.682Z,6.78
2022-09-26T10:40:46.786Z,7.78
2022-09-26T10:43:38.578Z,7.28
2022-09-26T10:46:18.462Z,8.95
2022-09-26T10:49:06.557Z,10.10
2022-09-26T10:52:09.383Z,9.68
2022-09-26T10:54:49.086Z,10.05
2022-09-26T10:57:25.522Z,12.40
2022-09-26T10:59:56.850Z,15.00
2022-09-26T11:02:28.396Z,12.80
2022-09-26T11:05:19.779Z,10.98
2022-09-26T11:08:00.924Z,10.10
2022-09-26T11:11:16.883Z,10.68
2022-09-26T11:14:04.104Z,10.07
2022-09-26T11:16:45.142Z,9.13
2022-09-26T11:19:40.225Z,9.45
2022-09-26T11:22:24.464Z,8.50
2022-09-26T11:25:00.177Z,8.70
2022-09-26T11:27:44.141Z,16.27
2022-09-26T11:30:22.667Z,7.30
2022-09-26T11:33:01.255Z,7.55
2022-09-26T11:36:23.455Z,11.23
2022-09-26T11:38:57.255Z,10.60
2022-09-26T11:42:06.635Z,9.65
2022-09-26T11:45:01.923Z,12.05
2022-09-26T11:48:02.404Z,14.95
2022-09-26T11:50:57.109Z,12.98
2022-09-26T11:53:34.249Z,13.35
2022-09-26T11:56:11.985Z,18.52
2022-09-26T11:58:54.051Z,14.18
2022-09-26T12:02:13.641Z,13.00
2022-09-26T12:04:48.664Z,16.33
2022-09-26T12:07:44.426Z,17.48
2022-09-26T12:10:40.760Z,16.98
2022-09-26T12:13:13.666Z,16.67
2022-09-26T12:15:55.808Z,16.15
2022-09-26T12:19:00.220Z,16.58
2022-09-26T12:22:15.147Z,18.13
2022-09-26T12:25:10.024Z,19.90
2022-09-26T12:28:08.957Z,19.38
2022-09-26T12:30:52.808Z,15.05
2022-09-26T12:33:48.545Z,20.63
2022-09-26T12:36:32.138Z,24.50
2022-09-26T12:39:25.470Z,24.05
2022-09-26T12:42:17.109Z,29.40
2022-09-26T12:45:03.861Z,35.17
2022-09-26T12:47:38.121Z,42.00
2022-09-26T12:50:30.053Z,53.53
2022-09-26T12:53:13.218Z,82.50
2022-09-26T12:56:07.942Z,22.25
2022-09-26T12:58:44.230Z,34.75
2022-09-26T13:01:24.726Z,31.42
2022-09-26T13:04:18.803Z,28.52
2022-09-26T13:07:25.109Z,33.15
2022-09-26T13:10:16.713Z,34.47
2022-09-26T13:13:09.233Z,26.50
2022-09-26T13:15:59.100Z,26.70
2022-09-26T13:18:41.230Z,24.70
2022-09-26T13:21:54.907Z,20.55
2022-09-26T13:24:33.093Z,22.60
2022-09-26T13:27:16.946Z,19.20
2022-09-26T13:29:50.607Z,25.23
2022-09-26T13:32:29.650Z,25.55
2022-09-26T13:35:15.083Z,36.88
2022-09-26T13:38:10.901Z,29.50
2022-09-26T13:41:00.436Z,36.35
2022-09-26T13:43:59.683Z,45.75
2022-09-26T13:46:43.980Z,48.25
2022-09-26T13:49:51.786Z,48.85
2022-09-26T13:52:40.985Z,72.82
2022-09-26T13:55:20.887Z,23.90
2022-09-26T13:57:52.096Z,33.70
2022-09-26T14:00:32.502Z,21.83
2022-09-26T14:03:19.949Z,22.15
2022-09-26T14:05:51.706Z,15.63
2022-09-26T14:08:44.999Z,14.07
2022-09-26T14:11:31.056Z,14.20
2022-09-26T14:14:18.416Z,13.95
2022-09-26T14:16:49.286Z,13.52
2022-09-26T14:19:38.705Z,10.32
2022-09-26T14:22:19.799Z,9.82
2022-09-26T14:24:57.007Z,7.93
2022-09-26T14:27:38.654Z,10.30
2022-09-26T14:30:25.915Z,8.57
2022-09-26T14:33:11.860Z,7.13
2022-09-26T14:35:40.601Z,8.05
2022-09-26T14:38:16.437Z,9.48
2022-09-26T14:41:00.559Z,9.85
2022-09-26T14:43:31.762Z,11.48
2022-09-26T14:46:28.749Z,10.57
2022-09-26T14:49:02.248Z,13.75
2022-09-26T14:51:35.054Z,12.20
2022-09-26T14:54:23.603Z,11.63
2022-09-26T14:57:01.486Z,11.20
2022-09-26T14:59:36.434Z,12.60
2022-09-26T15:02:39.509Z,12.35
2022-09-26T15:05:12.204Z,12.43
2022-09-26T15:07:52.700Z,11.95
2022-09-26T15:10:41.027Z,11.57
2022-09-26T15:13:27.565Z,11.20
2022-09-26T15:16:24.715Z,11.10
2022-09-26T15:19:21.775Z,11.15
2022-09-26T15:22:15.571Z,12.40
2022-09-26T15:24:44.550Z,11.60
2022-09-26T15:27:20.988Z,12.45
2022-09-26T15:29:58.806Z,13.13
2022-09-26T15:32:30.583Z,13.32
2022-09-26T15:35:02.366Z,15.15
2022-09-26T15:37:35.414Z,13.23
2022-09-26T15:40:17.316Z,13.15
2022-09-26T15:43:03.276Z,11.85
2022-09-26T15:45:58.809Z,13.95
2022-09-26T15:48:31.882Z,15.88
2022-09-26T15:51:16.558Z,14.00
2022-09-26T15:54:02.018Z,15.82
2022-09-26T15:56:43.005Z,18.35
2022-09-26T15:59:26.731Z,16.45
2022-09-26T16:01:58.359Z,12.73
2022-09-26T16:04:33.068Z,11.48
2022-09-26T16:07:16.993Z,13.18
2022-09-26T16:09:48.565Z,11.60
2022-09-26T16:12:17.212Z,13.75
2022-09-26T16:14:56.724Z,9.63
2022-09-26T16:17:33.884Z,11.77
2022-09-26T16:20:14.547Z,9.57
2022-09-26T16:23:05.685Z,10.27
2022-09-26T16:25:41.227Z,11.40
2022-09-26T16:28:11.118Z,11.05
2022-09-26T16:30:46.007Z,9.95
2022-09-26T16:33:28.498Z,11.68
2022-09-26T16:36:05.450Z,10.15
2022-09-26T16:38:37.777Z,8.85
2022-09-26T16:41:10.899Z,9.38
2022-09-26T16:43:40.688Z,9.40
2022-09-26T16:46:18.293Z,8.93
2022-09-26T16:48:53.414Z,9.15
2022-09-26T16:51:25.817Z,9.07
2022-09-26T16:54:12.012Z,9.73
2022-09-26T16:56:43.324Z,8.82
2022-09-26T16:59:22.487Z,8.25
2022-09-26T17:01:55.440Z,8.48
2022-09-26T17:04:36.849Z,13.43
2022-09-26T17:07:13.715Z,6.90
2022-09-26T17:09:45.674Z,6.53
2022-09-26T17:12:20.083Z,6.60
2022-09-26T17:14:52.776Z,6.65
2022-09-26T17:17:28.841Z,5.45
2022-09-26T17:20:02.418Z,6.28
2022-09-26T17:22:31.249Z,5.35
2022-09-26T17:25:00.171Z,5.85
2022-09-26T17:27:34.839Z,5.65
2022-09-26T17:30:05.806Z,7.05
2022-09-26T17:32:44.763Z,5.80
2022-09-26T17:35:34.364Z,6.50
2022-09-26T17:38:03.519Z,6.53
2022-09-26T17:40:34.095Z,5.68
2022-09-26T17:43:03.704Z,3.40
2022-09-26T17:45:36.112Z,3.05
2022-09-26T17:48:36.430Z,3.88
2022-09-26T17:51:05.860Z,3.33
2022-09-26T17:53:38.772Z,3.10
2022-09-26T17:56:08.345Z,2.70
2022-09-26T17:58:38.997Z,2.70
2022-09-26T18:01:09.913Z,5.57
2022-09-26T18:03:40.458Z,3.60
2022-09-26T18:06:11.137Z,3.38
2022-09-26T18:08:41.197Z,3.70
2022-09-26T18:11:16.549Z,2.75
2022-09-26T18:13:55.986Z,3.35
2022-09-26T18:16:25.624Z,2.15
2022-09-26T18:18:54.188Z,2.28
2022-09-26T18:21:25.185Z,2.22
2022-09-26T18:24:02.859Z,2.00
2022-09-26T18:26:35.798Z,2.10
2022-09-26T18:29:08.702Z,2.30
2022-09-26T18:31:42.344Z,2.20
2022-09-26T18:34:20.754Z,1.80
2022-09-26T18:36:51.030Z,2.00
2022-09-26T18:39:20.279Z,2.47
2022-09-26T18:41:52.341Z,2.38
2022-09-26T18:44:22.454Z,1.67
2022-09-26T18:46:51.198Z,1.67
2022-09-26T18:49:20.550Z,2.22
2022-09-26T18:51:49.951Z,2.38
2022-09-26T18:54:19.916Z,1.80
2022-09-26T18:57:07.819Z,2.17
2022-09-26T18:59:36.957Z,2.80
2022-09-26T19:02:21.337Z,2.08
2022-09-26T19:04:52.207Z,2.33
2022-09-26T19:07:21.886Z,2.35
2022-09-26T19:09:51.940Z,2.00
2022-09-26T19:12:22.060Z,2.05
2022-09-26T19:14:52.507Z,2.28
2022-09-26T19:17:22.677Z,2.80
2022-09-26T19:19:52.238Z,2.50
2022-09-26T19:22:22.243Z,2.80
2022-09-26T19:25:00.284Z,2.97
2022-09-26T19:27:36.259Z,2.78
2022-09-26T19:30:07.032Z,2.40
2022-09-26T19:32:40.669Z,2.30
2022-09-26T19:35:22.462Z,3.05
2022-09-26T19:37:51.177Z,2.80
2022-09-26T19:40:22.056Z,2.75
2022-09-26T19:42:51.088Z,2.55
2022-09-26T19:45:20.768Z,2.28
2022-09-26T19:47:51.848Z,3.15
2022-09-26T19:50:27.208Z,3.05
2022-09-26T19:52:59.296Z,2.40
2022-09-26T19:55:30.984Z,3.28
2022-09-26T19:58:12.575Z,4.35
2022-09-26T20:00:45.587Z,1.98
2022-09-26T20:03:42.437Z,2.55
2022-09-26T20:06:22.369Z,2.30
2022-09-26T20:08:56.439Z,1.77
2022-09-26T20:11:28.006Z,2.08
2022-09-26T20:14:14.941Z,1.88
2022-09-26T20:16:44.136Z,2.13
2022-09-26T20:19:22.548Z,2.50
2022-09-26T20:21:51.796Z,2.00
2022-09-26T20:24:20.676Z,1.85
2022-09-26T20:26:49.603Z,2.33
2022-09-26T20:29:19.278Z,1.42
2022-09-26T20:31:48.615Z,2.28
2022-09-26T20:34:20.797Z,1.90
2022-09-26T20:36:52.058Z,1.85
2022-09-26T20:39:26.365Z,1.65
2022-09-26T20:41:57.246Z,2.20
2022-09-26T20:44:30.933Z,2.40
2022-09-26T20:47:02.945Z,2.40
2022-09-26T20:49:41.836Z,2.00
2022-09-26T20:52:20.591Z,2.35
2022-09-26T20:54:50.939Z,3.10
2022-09-26T20:57:20.439Z,4.47
2022-09-26T20:59:49.789Z,3.08
2022-09-26T21:02:33.154Z,2.70
2022-09-26T21:05:02.715Z,2.00
2022-09-26T21:07:33.769Z,2.00
2022-09-26T21:10:02.990Z,2.13
2022-09-26T21:12:31.778Z,1.70
2022-09-26T21:15:00.600Z,1.67
2022-09-26T21:17:29.937Z,1.65
2022-09-26T21:19:58.845Z,1.80
2022-09-26T21:22:58.803Z,1.80
2022-09-26T21:25:30.862Z,2.33
2022-09-26T21:28:03.062Z,2.22
2022-09-26T21:30:32.100Z,1.90
2022-09-26T21:33:01.526Z,2.03
2022-09-26T21:35:32.858Z,2.00
2022-09-26T21:38:02.150Z,2.08
2022-09-26T21:40:33.753Z,1.42
2022-09-26T21:43:12.636Z,1.90
2022-09-26T21:45:45.742Z,12.38
2022-09-26T21:48:16.173Z,1.48
2022-09-26T21:50:57.450Z,1.95
2022-09-26T21:53:39.703Z,2.08
2022-09-26T21:56:14.390Z,2.05
2022-09-26T21:58:44.306Z,2.20
2022-09-26T22:01:15.022Z,2.42
2022-09-26T22:03:45.005Z,2.53
2022-09-26T22:06:14.080Z,2.28
2022-09-26T22:08:42.818Z,2.00
2022-09-26T22:11:11.775Z,1.90
2022-09-26T22:13:40.433Z,2.38
2022-09-26T22:16:11.472Z,2.20
2022-09-26T22:18:40.957Z,1.85
2022-09-26T22:21:11.963Z,2.28
2022-09-26T22:23:42.289Z,2.20
2022-09-26T22:26:11.497Z,2.40
2022-09-26T22:28:40.552Z,2.13
2022-09-26T22:31:12.219Z,2.15
2022-09-26T22:33:41.439Z,2.30
2022-09-26T22:36:10.697Z,2.13
2022-09-26T22:38:40.918Z,2.30
2022-09-26T22:41:10.357Z,2.40
2022-09-26T22:43:39.266Z,2.47
2022-09-26T22:46:13.435Z,1.65
2022-09-26T22:48:47.089Z,2.25
2022-09-26T22:51:17.545Z,3.70
2022-09-26T22:53:46.427Z,2.40
2022-09-26T22:56:16.757Z,2.60
2022-09-26T22:58:50.234Z,2.50
2022-09-26T23:01:25.312Z,2.55
2022-09-26T23:03:54.425Z,2.83
2022-09-26T23:06:23.904Z,2.40
2022-09-26T23:08:52.734Z,2.80
2022-09-26T23:11:21.764Z,2.85
2022-09-26T23:13:54.025Z,2.72
2022-09-26T23:16:25.073Z,2.33
2022-09-26T23:18:55.013Z,2.90
2022-09-26T23:21:26.533Z,2.35
2022-09-26T23:23:58.076Z,2.10
2022-09-26T23:26:29.566Z,2.17
2022-09-26T23:28:59.604Z,2.00
2022-09-26T23:31:29.465Z,2.00
2022-09-26T23:33:58.778Z,2.22
2022-09-26T23:36:27.493Z,2.13
2022-09-26T23:38:58.877Z,2.33
2022-09-26T23:41:27.496Z,2.00
2022-09-26T23:43:56.282Z,2.90
2022-09-26T23:46:24.853Z,2.00
2022-09-26T23:48:54.009Z,2.10
2022-09-26T23:51:22.857Z,2.10
2022-09-26T23:53:51.717Z,2.60
2022-09-26T23:56:20.997Z,2.40
2022-09-26T23:58:50.782Z,2.17
